createdAt,value
2022-11-29T00:01:19.858Z,101546.09
2022-11-29T00:03:46.778Z,101540.13
2022-11-29T00:06:20.017Z,101534.97
2022-11-29T00:08:47.116Z,101540.03
2022-11-29T00:11:16.936Z,101542.75
2022-11-29T00:13:43.513Z,101534.03
2022-11-29T00:16:11.392Z,101547.06
2022-11-29T00:18:37.942Z,101534.13
2022-11-29T00:21:06.224Z,101540.94
2022-11-29T00:23:32.770Z,101547.16
2022-11-29T00:26:07.656Z,101546.34
2022-11-29T00:28:35.951Z,101553.25
2022-11-29T00:31:14.556Z,101553.25
2022-11-29T00:33:41.071Z,101528.97
2022-11-29T00:36:07.844Z,101554.13
2022-11-29T00:38:34.550Z,101541.97
2022-11-29T00:41:01.014Z,101555.00
2022-11-29T00:43:27.515Z,101561.06
2022-11-29T00:45:54.205Z,101562.03
2022-11-29T00:48:20.783Z,101559.38
2022-11-29T00:50:47.249Z,101568.13
2022-11-29T00:53:13.743Z,101569.03
2022-11-29T00:55:40.189Z,101560.31
2022-11-29T00:58:06.761Z,101567.19
2022-11-29T01:00:33.253Z,101581.13
2022-11-29T01:02:59.957Z,101575.03
2022-11-29T01:05:26.594Z,101577.56
2022-11-29T01:07:53.348Z,101583.69
2022-11-29T01:10:20.067Z,101579.31
2022-11-29T01:12:46.598Z,101576.66
2022-11-29T01:15:13.182Z,101587.84
2022-11-29T01:17:40.779Z,101577.47
2022-11-29T01:20:10.263Z,101580.97
2022-11-29T01:22:37.768Z,101580.97
2022-11-29T01:25:05.618Z,101592.19
2022-11-29T01:27:32.717Z,101595.59
2022-11-29T01:29:59.201Z,101596.47
2022-11-29T01:32:25.758Z,101594.75
2022-11-29T01:34:52.203Z,101597.19
2022-11-29T01:37:18.703Z,101605.88
2022-11-29T01:39:45.209Z,101612.78
2022-11-29T01:42:13.191Z,101610.09
2022-11-29T01:44:39.635Z,101615.31
2022-11-29T01:47:06.088Z,101603.97
2022-11-29T01:49:35.873Z,101608.34
2022-11-29T01:52:06.518Z,101593.59
2022-11-29T01:54:36.602Z,101613.66
2022-11-29T01:57:06.291Z,101608.41
2022-11-29T01:59:33.996Z,101624.84
2022-11-29T02:02:06.947Z,101630.00
2022-11-29T02:04:38.304Z,101629.78
2022-11-29T02:07:05.263Z,101641.06
2022-11-29T02:09:31.812Z,101640.03
2022-11-29T02:12:01.320Z,101654.75
2022-11-29T02:14:57.268Z,101655.53
2022-11-29T02:17:40.508Z,101643.38
2022-11-29T02:20:34.902Z,101655.47
2022-11-29T02:23:23.149Z,101652.94
2022-11-29T02:26:42.772Z,101652.78
2022-11-29T02:29:27.702Z,101663.22
2022-11-29T02:32:31.828Z,101670.13
2022-11-29T02:35:07.898Z,101679.63
2022-11-29T02:37:43.360Z,101680.44
2022-11-29T02:40:38.805Z,101691.56
2022-11-29T02:43:08.416Z,101694.97
2022-11-29T02:45:46.906Z,101700.09
2022-11-29T02:48:16.390Z,101698.34
2022-11-29T02:50:55.535Z,101697.38
2022-11-29T02:53:30.199Z,101697.44
2022-11-29T02:56:11.037Z,101700.88
2022-11-29T02:58:59.122Z,101714.63
2022-11-29T03:01:47.131Z,101713.56
2022-11-29T03:04:23.469Z,101717.19
2022-11-29T03:07:11.508Z,101711.16
2022-11-29T03:09:47.517Z,101717.19
2022-11-29T03:12:35.531Z,101721.44
2022-11-29T03:15:21.383Z,101717.88
2022-11-29T03:18:06.292Z,101730.09
2022-11-29T03:20:38.555Z,101724.97
2022-11-29T03:23:13.715Z,101729.28
2022-11-29T03:26:19.025Z,101732.69
2022-11-29T03:29:02.498Z,101729.22
2022-11-29T03:31:37.514Z,101736.94
2022-11-29T03:34:33.219Z,101745.63
2022-11-29T03:37:05.399Z,101743.91
2022-11-29T03:39:44.167Z,101737.00
2022-11-29T03:42:45.535Z,101736.91
2022-11-29T03:45:19.558Z,101746.41
2022-11-29T03:48:03.605Z,101748.97
2022-11-29T03:50:44.124Z,101748.03
2022-11-29T03:53:31.796Z,101748.81
2022-11-29T03:56:04.371Z,101760.00
2022-11-29T03:58:35.754Z,101766.88
2022-11-29T04:01:21.095Z,101769.47
2022-11-29T04:04:02.883Z,101777.19
2022-11-29T04:07:03.792Z,101783.22
2022-11-29T04:09:48.858Z,101776.22
2022-11-29T04:12:18.508Z,101780.66
2022-11-29T04:15:30.248Z,101787.47
2022-11-29T04:18:09.061Z,101791.78
2022-11-29T04:21:00.393Z,101782.28
2022-11-29T04:23:51.846Z,101796.91
2022-11-29T04:26:39.633Z,101798.59
2022-11-29T04:29:06.083Z,101796.84
2022-11-29T04:31:56.626Z,101802.78
2022-11-29T04:34:38.671Z,101796.66
2022-11-29T04:37:15.250Z,101801.84
2022-11-29T04:39:58.764Z,101800.94
2022-11-29T04:42:43.802Z,101802.59
2022-11-29T04:45:47.770Z,101809.41
2022-11-29T04:48:26.047Z,101792.78
2022-11-29T04:50:55.767Z,101804.19
2022-11-29T04:53:37.172Z,101804.94
2022-11-29T04:56:12.456Z,101810.94
2022-11-29T04:59:33.471Z,101805.66
2022-11-29T05:02:12.964Z,101808.06
2022-11-29T05:04:53.249Z,101814.91
2022-11-29T05:07:58.256Z,101807.78
2022-11-29T05:10:56.253Z,101822.66
2022-11-29T05:13:41.410Z,101832.03
2022-11-29T05:16:29.877Z,101832.84
2022-11-29T05:19:35.068Z,101835.31
2022-11-29T05:22:27.638Z,101837.00
2022-11-29T05:25:19.107Z,101849.06
2022-11-29T05:28:09.698Z,101851.66
2022-11-29T05:31:16.115Z,101854.97
2022-11-29T05:34:08.188Z,101859.84
2022-11-29T05:36:49.935Z,101866.88
2022-11-29T05:39:38.190Z,101867.63
2022-11-29T05:42:10.678Z,101860.66
2022-11-29T05:44:56.833Z,101875.22
2022-11-29T05:47:36.052Z,101869.97
2022-11-29T05:50:10.701Z,101872.69
2022-11-29T05:53:04.921Z,101884.66
2022-11-29T05:55:50.148Z,101882.91
2022-11-29T05:58:32.522Z,101885.44
2022-11-29T06:01:13.265Z,101881.97
2022-11-29T06:03:51.081Z,101887.81
2022-11-29T06:06:43.181Z,101894.78
2022-11-29T06:09:26.747Z,101898.28
2022-11-29T06:11:58.565Z,101890.41
2022-11-29T06:14:46.738Z,101907.63
2022-11-29T06:17:39.067Z,101905.84
2022-11-29T06:20:24.969Z,101910.13
2022-11-29T06:23:12.314Z,101905.78
2022-11-29T06:26:19.258Z,101912.63
2022-11-29T06:28:51.820Z,101914.34
2022-11-29T06:31:29.049Z,101905.66
2022-11-29T06:34:10.303Z,101902.00
2022-11-29T06:36:45.064Z,101917.66
2022-11-29T06:39:12.008Z,101920.22
2022-11-29T06:41:38.599Z,101927.16
2022-11-29T06:44:05.774Z,101931.44
2022-11-29T06:46:48.518Z,101921.91
2022-11-29T06:49:51.757Z,101936.38
2022-11-29T06:52:37.097Z,101938.94
2022-11-29T06:55:12.571Z,101944.91
2022-11-29T06:58:16.210Z,101944.84
2022-11-29T07:01:01.861Z,101941.47
2022-11-29T07:04:10.396Z,101954.41
2022-11-29T07:06:37.198Z,101958.75
2022-11-29T07:09:13.505Z,101957.84
2022-11-29T07:11:40.851Z,101972.56
2022-11-29T07:14:08.080Z,101963.03
2022-11-29T07:16:57.322Z,101976.09
2022-11-29T07:20:00.449Z,101977.81
2022-11-29T07:22:35.934Z,101979.56
2022-11-29T07:25:16.996Z,101986.41
2022-11-29T07:27:46.454Z,101993.28
2022-11-29T07:30:18.751Z,101996.69
2022-11-29T07:33:00.885Z,102003.56
2022-11-29T07:35:38.567Z,102011.22
2022-11-29T07:38:23.910Z,102015.44
2022-11-29T07:41:13.891Z,102012.81
2022-11-29T07:44:05.357Z,102020.59
2022-11-29T07:46:31.919Z,102009.31
2022-11-29T07:48:58.469Z,102028.31
2022-11-29T07:51:25.644Z,102020.38
2022-11-29T07:53:52.176Z,102027.22
2022-11-29T07:56:18.696Z,102028.94
2022-11-29T07:58:45.209Z,102024.44
2022-11-29T08:01:11.977Z,102031.47
2022-11-29T08:03:38.507Z,102039.97
2022-11-29T08:06:05.062Z,102039.81
2022-11-29T08:08:31.615Z,102037.25
2022-11-29T08:10:58.113Z,102038.06
2022-11-29T08:13:24.648Z,102044.00
2022-11-29T08:15:51.118Z,102029.03
2022-11-29T08:18:17.898Z,102049.16
2022-11-29T08:20:44.790Z,102059.44
2022-11-29T08:23:12.581Z,102059.44
2022-11-29T08:25:39.775Z,102060.34
2022-11-29T08:28:06.394Z,102064.69
2022-11-29T08:30:32.951Z,102054.31
2022-11-29T08:32:59.458Z,102068.22
2022-11-29T08:35:25.994Z,102064.59
2022-11-29T08:37:54.483Z,102074.19
2022-11-29T08:40:21.047Z,102075.75
2022-11-29T08:42:47.523Z,102081.09
2022-11-29T08:45:14.032Z,102076.59
2022-11-29T08:47:40.535Z,102082.66
2022-11-29T08:50:16.100Z,102094.00
2022-11-29T08:52:45.603Z,102087.22
2022-11-29T08:55:12.221Z,102094.19
2022-11-29T08:57:40.432Z,102094.19
2022-11-29T09:00:08.150Z,102095.06
2022-11-29T09:02:36.450Z,102092.38
2022-11-29T09:05:04.215Z,102102.81
2022-11-29T09:07:30.921Z,102099.34
2022-11-29T09:09:57.506Z,102095.06
2022-11-29T09:12:24.040Z,102106.44
2022-11-29T09:14:50.502Z,102089.03
2022-11-29T09:17:17.051Z,102103.63
2022-11-29T09:19:43.510Z,102104.63
2022-11-29T09:22:10.063Z,102101.94
2022-11-29T09:24:36.568Z,102096.91
2022-11-29T09:27:03.147Z,102082.88
2022-11-29T09:29:29.618Z,102103.81
2022-11-29T09:31:56.435Z,102094.41
2022-11-29T09:34:23.481Z,102099.56
2022-11-29T09:36:50.112Z,102101.28
2022-11-29T09:39:16.603Z,102075.31
2022-11-29T09:42:07.664Z,102075.41
2022-11-29T09:44:50.469Z,102082.53
2022-11-29T09:47:24.978Z,102082.41
2022-11-29T09:50:03.577Z,102085.00
2022-11-29T09:52:36.225Z,102091.84
2022-11-29T09:55:43.874Z,102100.53
2022-11-29T09:58:15.530Z,102104.03
2022-11-29T10:00:46.032Z,102111.91
2022-11-29T10:03:25.001Z,102114.38
2022-11-29T10:05:57.117Z,102125.63
2022-11-29T10:08:31.716Z,102123.13
2022-11-29T10:11:16.131Z,102130.84
2022-11-29T10:13:47.251Z,102142.91
2022-11-29T10:16:36.206Z,102142.94
2022-11-29T10:19:11.823Z,102148.88
2022-11-29T10:21:43.632Z,102153.34
2022-11-29T10:24:14.486Z,102151.59
2022-11-29T10:26:42.156Z,102156.53
2022-11-29T10:29:14.247Z,102163.66
2022-11-29T10:31:44.150Z,102160.22
2022-11-29T10:34:24.950Z,102156.75
2022-11-29T10:36:57.667Z,102163.66
2022-11-29T10:39:29.810Z,102161.09
2022-11-29T10:41:59.921Z,102159.31
2022-11-29T10:44:27.018Z,102152.34
2022-11-29T10:46:55.030Z,102157.63
2022-11-29T10:49:26.833Z,102160.34
2022-11-29T10:51:53.394Z,102159.47
2022-11-29T10:54:28.931Z,102162.94
2022-11-29T10:56:58.934Z,102159.31
2022-11-29T10:59:28.194Z,102164.63
2022-11-29T11:01:55.565Z,102157.69
2022-11-29T11:04:35.140Z,102170.72
2022-11-29T11:07:06.032Z,102170.78
2022-11-29T11:09:39.501Z,102153.34
2022-11-29T11:12:16.848Z,102169.91
2022-11-29T11:14:44.778Z,102171.69
2022-11-29T11:17:15.737Z,102171.75
2022-11-29T11:19:42.399Z,102166.53
2022-11-29T11:22:20.869Z,102166.59
2022-11-29T11:25:23.945Z,102170.22
2022-11-29T11:27:50.873Z,102171.84
2022-11-29T11:30:28.084Z,102183.03
2022-11-29T11:33:19.376Z,102189.88
2022-11-29T11:36:06.105Z,102182.94
2022-11-29T11:38:35.060Z,102176.03
2022-11-29T11:41:07.447Z,102180.31
2022-11-29T11:43:34.568Z,102173.31
2022-11-29T11:46:01.375Z,102166.59
2022-11-29T11:48:28.691Z,102169.13
2022-11-29T11:50:59.158Z,102177.06
2022-11-29T11:53:36.441Z,102184.88
2022-11-29T11:56:05.975Z,102177.88
2022-11-29T11:58:37.587Z,102174.50
2022-11-29T12:01:13.062Z,102188.53
2022-11-29T12:04:01.029Z,102185.00
2022-11-29T12:06:30.562Z,102180.75
2022-11-29T12:09:17.206Z,102175.28
2022-11-29T12:11:51.109Z,102159.41
2022-11-29T12:14:59.350Z,102172.72
2022-11-29T12:17:38.007Z,102167.63
2022-11-29T12:20:22.967Z,102164.31
2022-11-29T12:23:05.664Z,102169.47
2022-11-29T12:25:39.596Z,102175.59
2022-11-29T12:28:15.842Z,102159.91
2022-11-29T12:30:59.022Z,102167.56
2022-11-29T12:33:37.681Z,102169.41
2022-11-29T12:36:30.944Z,102170.22
2022-11-29T12:39:09.555Z,102167.69
2022-11-29T12:42:00.127Z,102165.13
2022-11-29T12:44:44.113Z,102163.44
2022-11-29T12:47:42.105Z,102172.94
2022-11-29T12:50:46.507Z,102175.53
2022-11-29T12:53:47.090Z,102176.47
2022-11-29T12:56:33.961Z,102162.59
2022-11-29T12:59:30.377Z,102167.78
2022-11-29T13:02:12.087Z,102161.06
2022-11-29T13:04:44.858Z,102169.66
2022-11-29T13:07:41.142Z,102169.47
2022-11-29T13:10:41.819Z,102179.03
2022-11-29T13:13:26.514Z,102181.63
2022-11-29T13:16:02.474Z,102191.19
2022-11-29T13:18:54.373Z,102185.13
2022-11-29T13:21:46.681Z,102166.69
2022-11-29T13:24:24.194Z,102179.03
2022-11-29T13:26:52.528Z,102178.31
2022-11-29T13:29:23.739Z,102178.31
2022-11-29T13:31:51.639Z,102170.38
2022-11-29T13:34:21.184Z,102177.28
2022-11-29T13:37:07.567Z,102185.00
2022-11-29T13:39:40.067Z,102176.47
2022-11-29T13:42:48.183Z,102168.59
2022-11-29T13:45:27.113Z,102176.47
2022-11-29T13:48:00.125Z,102174.69
2022-11-29T13:50:45.883Z,102178.09
2022-11-29T13:53:20.361Z,102176.41
2022-11-29T13:55:48.493Z,102180.69
2022-11-29T13:58:17.413Z,102185.84
2022-11-29T14:00:44.779Z,102185.81
2022-11-29T14:03:23.536Z,102181.41
2022-11-29T14:05:54.443Z,102179.66
2022-11-29T14:08:37.932Z,102178.69
2022-11-29T14:11:14.877Z,102186.47
2022-11-29T14:13:41.339Z,102194.16
2022-11-29T14:16:18.047Z,102181.84
2022-11-29T14:18:44.597Z,102183.69
2022-11-29T14:21:11.601Z,102176.63
2022-11-29T14:23:39.743Z,102180.16
2022-11-29T14:26:06.219Z,102181.78
2022-11-29T14:28:37.359Z,102189.50
2022-11-29T14:31:05.633Z,102176.22
2022-11-29T14:33:38.885Z,102194.69
2022-11-29T14:36:43.412Z,102191.94
2022-11-29T14:39:18.941Z,102182.38
2022-11-29T14:41:45.535Z,102184.97
2022-11-29T14:44:34.137Z,102186.63
2022-11-29T14:47:18.849Z,102196.88
2022-11-29T14:49:46.013Z,102195.09
2022-11-29T14:52:15.640Z,102192.38
2022-11-29T14:54:55.139Z,102197.53
2022-11-29T14:57:46.958Z,102195.03
2022-11-29T15:00:48.888Z,102195.03
2022-11-29T15:03:26.299Z,102184.50
2022-11-29T15:06:16.045Z,102184.59
2022-11-29T15:08:54.814Z,102187.16
2022-11-29T15:11:50.679Z,102191.41
2022-11-29T15:14:28.175Z,102197.22
2022-11-29T15:17:04.447Z,102209.38
2022-11-29T15:19:57.608Z,102205.06
2022-11-29T15:22:30.779Z,102203.34
2022-11-29T15:25:02.092Z,102203.41
2022-11-29T15:27:28.859Z,102207.63
2022-11-29T15:29:55.435Z,102203.19
2022-11-29T15:32:30.064Z,102209.22
2022-11-29T15:34:57.353Z,102214.19
2022-11-29T15:37:35.921Z,102222.75
2022-11-29T15:40:05.810Z,102216.75
2022-11-29T15:42:50.281Z,102225.28
2022-11-29T15:45:27.186Z,102225.22
2022-11-29T15:47:54.600Z,102221.59
2022-11-29T15:50:32.630Z,102222.53
2022-11-29T15:53:04.124Z,102232.88
2022-11-29T15:55:31.099Z,102227.56
2022-11-29T15:58:05.511Z,102227.47
2022-11-29T16:00:35.823Z,102223.94
2022-11-29T16:03:04.822Z,102231.78
2022-11-29T16:05:34.767Z,102228.38
2022-11-29T16:08:16.360Z,102229.97
2022-11-29T16:10:49.592Z,102238.56
2022-11-29T16:13:25.506Z,102243.66
2022-11-29T16:16:11.071Z,102255.56
2022-11-29T16:18:40.335Z,102261.59
2022-11-29T16:21:08.006Z,102258.81
2022-11-29T16:23:35.786Z,102253.63
2022-11-29T16:26:13.070Z,102239.47
2022-11-29T16:28:44.576Z,102248.16
2022-11-29T16:31:19.355Z,102244.59
2022-11-29T16:33:48.030Z,102254.84
2022-11-29T16:36:23.644Z,102259.81
2022-11-29T16:38:54.315Z,102256.19
2022-11-29T16:41:37.874Z,102258.66
2022-11-29T16:44:06.654Z,102257.94
2022-11-29T16:46:35.086Z,102246.84
2022-11-29T16:49:23.931Z,102252.97
2022-11-29T16:51:52.000Z,102243.28
2022-11-29T16:54:24.847Z,102257.00
2022-11-29T16:56:53.505Z,102260.41
2022-11-29T16:59:27.795Z,102262.03
2022-11-29T17:01:55.771Z,102262.94
2022-11-29T17:04:23.783Z,102251.66
2022-11-29T17:06:53.190Z,102262.03
2022-11-29T17:09:28.133Z,102265.69
2022-11-29T17:11:56.087Z,102270.75
2022-11-29T17:14:22.913Z,102281.94
2022-11-29T17:16:49.551Z,102274.91
2022-11-29T17:19:17.142Z,102276.84
2022-11-29T17:21:43.893Z,102275.88
2022-11-29T17:24:13.105Z,102271.00
2022-11-29T17:26:40.660Z,102274.47
2022-11-29T17:29:09.213Z,102275.25
2022-11-29T17:31:35.755Z,102283.97
2022-11-29T17:34:02.781Z,102276.13
2022-11-29T17:36:29.617Z,102274.47
2022-11-29T17:38:56.302Z,102276.25
2022-11-29T17:41:24.531Z,102277.13
2022-11-29T17:43:52.433Z,102271.22
2022-11-29T17:46:22.038Z,102277.19
2022-11-29T17:48:49.999Z,102284.22
2022-11-29T17:51:50.022Z,102262.28
2022-11-29T17:54:06.617Z,102283.25
2022-11-29T17:56:33.700Z,102289.25
2022-11-29T17:59:02.823Z,102295.31
2022-11-29T18:01:32.176Z,102291.94
2022-11-29T18:04:01.410Z,102282.53
2022-11-29T18:06:30.070Z,102285.16
2022-11-29T18:09:00.727Z,102289.50
2022-11-29T18:11:42.969Z,102289.50
2022-11-29T18:14:13.508Z,102290.41
2022-11-29T18:16:40.243Z,102292.19
2022-11-29T18:19:19.081Z,102301.66
2022-11-29T18:21:45.699Z,102299.16
2022-11-29T18:24:13.315Z,102299.19
2022-11-29T18:26:40.724Z,102297.44
2022-11-29T18:29:08.063Z,102309.50
2022-11-29T18:31:37.420Z,102310.31
2022-11-29T18:34:06.173Z,102311.25
2022-11-29T18:36:36.910Z,102300.78
2022-11-29T18:39:17.587Z,102306.00
2022-11-29T18:41:48.096Z,102314.78
2022-11-29T18:44:16.426Z,102311.31
2022-11-29T18:46:44.271Z,102316.53
2022-11-29T18:49:16.358Z,102312.88
2022-11-29T18:51:44.145Z,102324.28
2022-11-29T18:54:11.109Z,102323.31
2022-11-29T18:56:38.144Z,102329.41
2022-11-29T18:59:10.235Z,102323.38
2022-11-29T19:01:38.923Z,102330.22
2022-11-29T19:04:05.447Z,102325.16
2022-11-29T19:06:39.191Z,102328.56
2022-11-29T19:09:10.375Z,102322.56
2022-11-29T19:11:37.070Z,102333.78
2022-11-29T19:14:05.909Z,102346.66
2022-11-29T19:16:34.394Z,102333.72
2022-11-29T19:19:01.486Z,102334.75
2022-11-29T19:21:31.058Z,102329.41
2022-11-29T19:24:00.335Z,102332.97
2022-11-29T19:26:28.871Z,102339.00
2022-11-29T19:28:55.958Z,102346.81
2022-11-29T19:31:23.876Z,102332.00
2022-11-29T19:33:51.374Z,102336.50
2022-11-29T19:36:29.564Z,102342.53
2022-11-29T19:38:59.492Z,102345.03
2022-11-29T19:41:28.814Z,102335.50
2022-11-29T19:44:01.271Z,102340.78
2022-11-29T19:46:30.933Z,102340.78
2022-11-29T19:49:00.546Z,102340.63
2022-11-29T19:51:28.040Z,102351.88
2022-11-29T19:53:57.187Z,102351.06
2022-11-29T19:56:23.708Z,102350.19
2022-11-29T19:58:50.743Z,102346.56
2022-11-29T20:01:23.077Z,102351.75
2022-11-29T20:03:50.292Z,102354.31
2022-11-29T20:06:18.330Z,102363.06
2022-11-29T20:08:45.072Z,102365.66
2022-11-29T20:11:22.711Z,102361.38
2022-11-29T20:14:03.269Z,102359.63
2022-11-29T20:16:30.595Z,102355.41
2022-11-29T20:18:57.618Z,102348.53
2022-11-29T20:21:45.645Z,102357.16
2022-11-29T20:24:13.183Z,102346.75
2022-11-29T20:26:41.531Z,102354.56
2022-11-29T20:29:08.690Z,102354.63
2022-11-29T20:31:36.851Z,102357.28
2022-11-29T20:34:05.788Z,102364.13
2022-11-29T20:37:04.763Z,102338.88
2022-11-29T20:39:54.325Z,102357.28
2022-11-29T20:42:51.682Z,102365.00
2022-11-29T20:45:18.713Z,102359.84
2022-11-29T20:48:03.789Z,102366.69
2022-11-29T20:50:32.032Z,102361.47
2022-11-29T20:53:05.764Z,102365.00
2022-11-29T20:55:32.453Z,102361.38
2022-11-29T20:57:58.966Z,102363.25
2022-11-29T21:00:25.590Z,102364.88
2022-11-29T21:02:52.042Z,102353.59
2022-11-29T21:05:18.698Z,102374.44
2022-11-29T21:07:45.428Z,102370.91
2022-11-29T21:10:12.477Z,102354.31
2022-11-29T21:12:39.262Z,102361.47
2022-11-29T21:15:06.500Z,102366.00
2022-11-29T21:17:34.060Z,102358.00
2022-11-29T21:20:01.097Z,102348.53
2022-11-29T21:22:35.089Z,102358.09
2022-11-29T21:25:25.755Z,102364.31
2022-11-29T21:27:54.630Z,102356.56
2022-11-29T21:30:23.318Z,102347.78
2022-11-29T21:32:50.290Z,102339.13
2022-11-29T21:35:17.298Z,102350.59
2022-11-29T21:37:44.783Z,102347.09
2022-11-29T21:40:12.550Z,102353.19
2022-11-29T21:42:39.253Z,102335.63
2022-11-29T21:45:11.678Z,102345.28
2022-11-29T21:47:41.826Z,102352.38
2022-11-29T21:50:08.713Z,102353.94
2022-11-29T21:52:35.211Z,102342.41
2022-11-29T21:55:02.019Z,102348.53
2022-11-29T21:57:28.518Z,102341.66
2022-11-29T21:59:55.008Z,102354.81
2022-11-29T22:02:21.603Z,102356.47
2022-11-29T22:04:48.456Z,102346.16
2022-11-29T22:07:15.176Z,102358.34
2022-11-29T22:09:41.719Z,102363.50
2022-11-29T22:12:32.052Z,102367.75
2022-11-29T22:14:55.176Z,102365.19
2022-11-29T22:17:21.627Z,102366.00
2022-11-29T22:19:48.131Z,102375.41
2022-11-29T22:22:14.598Z,102383.13
2022-11-29T22:24:41.424Z,102394.34
2022-11-29T22:27:08.440Z,102389.16
2022-11-29T22:29:34.943Z,102390.84
2022-11-29T22:32:01.383Z,102385.63
2022-11-29T22:34:28.262Z,102387.38
2022-11-29T22:36:55.014Z,102383.84
2022-11-29T22:39:23.205Z,102389.16
2022-11-29T22:41:54.201Z,102384.84
2022-11-29T22:44:22.738Z,102378.84
2022-11-29T22:46:49.541Z,102394.41
2022-11-29T22:49:16.102Z,102396.03
2022-11-29T22:51:42.582Z,102391.00
2022-11-29T22:54:10.621Z,102390.13
2022-11-29T22:56:39.311Z,102384.84
2022-11-29T22:59:05.913Z,102384.66
2022-11-29T23:01:34.874Z,102380.31
2022-11-29T23:04:04.126Z,102392.63
2022-11-29T23:06:42.685Z,102385.69
2022-11-29T23:09:15.133Z,102389.34
2022-11-29T23:11:42.925Z,102389.41
2022-11-29T23:14:09.973Z,102390.31
2022-11-29T23:16:36.696Z,102386.91
2022-11-29T23:19:03.258Z,102385.97
2022-11-29T23:21:32.371Z,102388.50
2022-11-29T23:23:59.629Z,102399.81
2022-11-29T23:26:27.101Z,102393.84
2022-11-29T23:28:55.186Z,102395.53
2022-11-29T23:31:23.718Z,102393.03
2022-11-29T23:33:51.264Z,102383.38
2022-11-29T23:36:17.883Z,102392.19
2022-11-29T23:38:44.752Z,102385.97
2022-11-29T23:41:12.073Z,102401.66
2022-11-29T23:43:41.522Z,102396.41
2022-11-29T23:46:12.300Z,102403.31
2022-11-29T23:48:38.889Z,102393.03
2022-11-29T23:51:05.730Z,102396.50
2022-11-29T23:53:32.712Z,102385.97
2022-11-29T23:56:05.241Z,102397.41
2022-11-29T23:58:33.172Z,102380.81
